createdAt,value
2022-07-29T00:00:26.503Z,61.14
2022-07-29T00:05:40.644Z,66.88
2022-07-29T00:10:43.350Z,63.38
2022-07-29T00:15:45.793Z,60.90
2022-07-29T00:20:48.186Z,58.45
2022-07-29T00:25:50.717Z,62.70
2022-07-29T00:30:53.227Z,65.94
2022-07-29T00:35:55.832Z,62.14
2022-07-29T00:40:59.728Z,60.17
2022-07-29T00:46:02.695Z,59.27
2022-07-29T00:51:06.690Z,58.81
2022-07-29T00:56:09.107Z,63.74
2022-07-29T01:01:11.554Z,65.22
2022-07-29T01:06:15.580Z,60.75
2022-07-29T01:11:19.172Z,59.27
2022-07-29T01:16:38.173Z,57.79
2022-07-29T01:21:58.450Z,62.35
2022-07-29T01:27:32.702Z,65.73
2022-07-29T01:32:38.117Z,60.51
2022-07-29T01:37:46.268Z,58.40
2022-07-29T01:42:55.616Z,62.26
2022-07-29T01:48:13.888Z,66.42
2022-07-29T01:53:26.739Z,61.96
2022-07-29T01:58:32.292Z,60.44
2022-07-29T02:03:37.242Z,59.53
2022-07-29T02:08:41.564Z,58.39
2022-07-29T02:13:46.373Z,63.69
2022-07-29T02:18:51.489Z,64.77
2022-07-29T02:23:55.408Z,60.86
2022-07-29T02:29:01.234Z,58.22
2022-07-29T02:34:05.906Z,63.43
2022-07-29T02:39:10.798Z,65.19
2022-07-29T02:44:21.828Z,58.96
2022-07-29T02:49:30.011Z,59.09
2022-07-29T02:54:45.298Z,65.27
2022-07-29T02:59:52.666Z,61.77
2022-07-29T03:04:56.884Z,58.44
2022-07-29T03:10:02.010Z,60.91
2022-07-29T03:15:05.298Z,67.78
2022-07-29T03:20:09.290Z,62.73
2022-07-29T03:25:13.537Z,61.21
2022-07-29T03:30:21.753Z,59.71
2022-07-29T03:35:25.648Z,57.83
2022-07-29T03:40:50.590Z,63.08
2022-07-29T03:45:55.970Z,64.52
2022-07-29T03:50:58.443Z,58.64
2022-07-29T03:56:02.994Z,60.76
2022-07-29T04:01:06.166Z,67.15
2022-07-29T04:06:08.662Z,62.43
2022-07-29T04:11:11.196Z,58.04
2022-07-29T04:16:13.627Z,59.65
2022-07-29T04:21:16.236Z,66.43
2022-07-29T04:26:19.605Z,60.86
2022-07-29T04:31:25.729Z,56.78
2022-07-29T04:36:29.899Z,59.46
2022-07-29T04:41:33.690Z,65.43
2022-07-29T04:46:37.195Z,60.52
2022-07-29T04:51:40.053Z,57.22
2022-07-29T04:56:42.780Z,61.15
2022-07-29T05:01:45.206Z,66.43
2022-07-29T05:06:47.775Z,60.85
2022-07-29T05:11:50.181Z,57.43
2022-07-29T05:16:53.773Z,62.77
2022-07-29T05:21:56.178Z,62.89
2022-07-29T05:26:58.621Z,58.27
2022-07-29T05:32:01.041Z,60.16
2022-07-29T05:37:03.435Z,65.86
2022-07-29T05:42:10.673Z,60.75
2022-07-29T05:47:13.216Z,56.67
2022-07-29T05:52:16.071Z,59.38
2022-07-29T05:57:21.117Z,63.73
2022-07-29T06:02:23.556Z,58.90
2022-07-29T06:07:25.998Z,56.86
2022-07-29T06:12:28.492Z,60.05
2022-07-29T06:17:30.938Z,63.96
2022-07-29T06:22:33.336Z,57.42
2022-07-29T06:27:35.765Z,54.50
2022-07-29T06:32:42.923Z,57.00
2022-07-29T06:37:45.701Z,61.90
2022-07-29T06:42:51.235Z,53.89
2022-07-29T06:47:53.685Z,57.68
2022-07-29T06:52:56.135Z,56.36
2022-07-29T06:57:58.558Z,56.93
2022-07-29T07:03:00.926Z,57.73
2022-07-29T07:08:04.183Z,58.05
2022-07-29T07:13:06.866Z,57.96
2022-07-29T07:18:09.899Z,57.83
2022-07-29T07:23:12.382Z,56.35
2022-07-29T07:28:14.968Z,56.41
2022-07-29T07:33:17.507Z,55.68
2022-07-29T07:38:20.099Z,56.08
2022-07-29T07:43:23.437Z,51.83
2022-07-29T07:48:25.853Z,49.10
2022-07-29T07:53:30.616Z,51.26
2022-07-29T07:58:33.553Z,51.68
2022-07-29T08:03:36.252Z,52.04
2022-07-29T08:08:38.637Z,50.45
2022-07-29T08:13:41.072Z,51.58
2022-07-29T08:18:44.724Z,48.27
2022-07-29T08:23:57.646Z,49.02
2022-07-29T08:29:02.280Z,50.52
2022-07-29T08:34:05.610Z,48.95
2022-07-29T08:39:08.053Z,48.23
2022-07-29T08:44:10.637Z,49.04
2022-07-29T08:49:13.161Z,45.10
2022-07-29T08:54:19.272Z,45.88
2022-07-29T08:59:25.512Z,47.10
2022-07-29T09:04:34.149Z,46.14
2022-07-29T09:09:36.536Z,45.69
2022-07-29T09:14:39.951Z,47.55
2022-07-29T09:19:44.775Z,45.65
2022-07-29T09:24:48.475Z,43.34
2022-07-29T09:30:02.479Z,42.91
2022-07-29T09:35:23.242Z,45.33
2022-07-29T09:40:28.516Z,43.39
2022-07-29T09:45:32.190Z,42.63
2022-07-29T09:50:42.126Z,43.14
2022-07-29T09:55:52.545Z,40.97
2022-07-29T10:00:56.909Z,41.96
2022-07-29T10:06:15.172Z,40.59
2022-07-29T10:11:18.533Z,42.05
2022-07-29T10:16:20.996Z,41.48
2022-07-29T10:21:35.942Z,41.30
2022-07-29T10:26:41.799Z,43.17
2022-07-29T10:32:15.257Z,40.34
2022-07-29T10:37:35.406Z,39.46
2022-07-29T10:42:42.182Z,38.35
2022-07-29T10:47:45.944Z,38.18
2022-07-29T10:52:53.395Z,39.47
2022-07-29T10:58:21.786Z,37.98
2022-07-29T11:03:53.719Z,38.91
2022-07-29T11:09:20.192Z,37.32
2022-07-29T11:14:55.614Z,37.11
2022-07-29T11:20:30.863Z,35.99
2022-07-29T11:25:50.156Z,35.23
2022-07-29T11:30:55.963Z,35.07
2022-07-29T11:36:16.934Z,35.75
2022-07-29T11:41:26.076Z,37.00
2022-07-29T11:46:49.958Z,36.04
2022-07-29T11:51:54.299Z,35.92
2022-07-29T11:56:58.717Z,34.59
2022-07-29T12:02:33.318Z,35.73
2022-07-29T12:07:34.605Z,33.27
2022-07-29T12:12:39.552Z,35.50
2022-07-29T12:17:42.734Z,35.22
2022-07-29T12:22:45.306Z,36.36
2022-07-29T12:27:58.996Z,37.57
2022-07-29T12:33:02.680Z,36.93
2022-07-29T12:38:05.453Z,36.14
2022-07-29T12:43:13.997Z,35.33
2022-07-29T12:48:17.514Z,36.17
2022-07-29T12:53:20.128Z,35.27
2022-07-29T12:58:39.725Z,35.52
2022-07-29T13:04:00.716Z,34.37
2022-07-29T13:09:20.624Z,35.00
2022-07-29T13:14:48.922Z,35.11
2022-07-29T13:20:15.590Z,36.02
2022-07-29T13:25:34.206Z,35.10
2022-07-29T13:30:36.638Z,34.86
2022-07-29T13:35:48.372Z,34.78
2022-07-29T13:40:50.760Z,34.30
2022-07-29T13:45:53.288Z,34.62
2022-07-29T13:50:55.826Z,34.15
2022-07-29T13:55:58.298Z,34.44
2022-07-29T14:01:01.539Z,34.61
2022-07-29T14:06:03.871Z,34.67
2022-07-29T14:11:06.341Z,34.17
2022-07-29T14:16:09.008Z,34.44
2022-07-29T14:21:11.426Z,34.28
2022-07-29T14:26:15.858Z,34.97
2022-07-29T14:31:22.887Z,35.02
2022-07-29T14:36:25.439Z,34.70
2022-07-29T14:41:29.156Z,33.65
2022-07-29T14:46:31.803Z,32.99
2022-07-29T14:51:34.451Z,31.32
2022-07-29T14:56:37.715Z,29.05
2022-07-29T15:01:48.782Z,29.01
2022-07-29T15:06:52.690Z,28.24
2022-07-29T15:11:55.387Z,28.18
2022-07-29T15:16:58.179Z,27.53
2022-07-29T15:22:01.632Z,26.56
2022-07-29T15:27:04.324Z,25.78
2022-07-29T15:32:07.010Z,26.93
2022-07-29T15:37:11.640Z,28.10
2022-07-29T15:42:14.072Z,27.75
2022-07-29T15:47:20.246Z,28.44
2022-07-29T15:52:25.630Z,26.14
2022-07-29T15:57:28.710Z,24.90
2022-07-29T16:02:31.587Z,24.58
2022-07-29T16:07:34.155Z,23.86
2022-07-29T16:12:37.162Z,23.30
2022-07-29T16:17:39.568Z,22.71
2022-07-29T16:22:43.146Z,22.98
2022-07-29T16:27:45.511Z,21.89
2022-07-29T16:32:47.945Z,22.35
2022-07-29T16:37:50.278Z,25.27
2022-07-29T16:42:52.687Z,27.98
2022-07-29T16:48:00.121Z,30.39
2022-07-29T16:53:03.407Z,32.10
2022-07-29T16:58:05.891Z,33.90
2022-07-29T17:03:08.331Z,34.93
2022-07-29T17:08:10.741Z,36.97
2022-07-29T17:13:13.189Z,37.45
2022-07-29T17:18:15.609Z,37.77
2022-07-29T17:23:18.039Z,38.29
2022-07-29T17:28:20.433Z,38.71
2022-07-29T17:33:22.862Z,38.18
2022-07-29T17:38:25.377Z,39.92
2022-07-29T17:43:27.994Z,40.95
2022-07-29T17:48:30.563Z,40.55
2022-07-29T17:53:33.150Z,42.09
2022-07-29T17:58:36.222Z,42.92
2022-07-29T18:03:38.653Z,43.49
2022-07-29T18:08:41.378Z,43.60
2022-07-29T18:13:43.814Z,43.88
2022-07-29T18:18:46.427Z,43.69
2022-07-29T18:23:50.594Z,43.78
2022-07-29T18:28:53.030Z,44.32
2022-07-29T18:33:59.874Z,46.46
2022-07-29T18:39:02.703Z,46.32
2022-07-29T18:44:05.233Z,47.26
2022-07-29T18:49:08.104Z,48.69
2022-07-29T18:54:10.592Z,49.21
2022-07-29T18:59:16.836Z,49.04
2022-07-29T19:04:19.275Z,50.03
2022-07-29T19:09:21.855Z,52.09
2022-07-29T19:14:24.277Z,52.89
2022-07-29T19:19:26.930Z,53.46
2022-07-29T19:24:29.364Z,52.75
2022-07-29T19:29:32.764Z,53.57
2022-07-29T19:34:35.577Z,56.00
2022-07-29T19:39:37.977Z,57.61
2022-07-29T19:44:40.421Z,58.42
2022-07-29T19:49:42.860Z,59.28
2022-07-29T19:54:45.324Z,59.88
2022-07-29T19:59:48.201Z,61.49
2022-07-29T20:04:52.089Z,65.63
2022-07-29T20:09:55.073Z,57.78
2022-07-29T20:14:58.071Z,55.41
2022-07-29T20:20:01.098Z,57.49
2022-07-29T20:25:05.496Z,59.28
2022-07-29T20:30:08.954Z,59.84
2022-07-29T20:35:13.793Z,61.01
2022-07-29T20:40:16.789Z,66.49
2022-07-29T20:45:20.027Z,60.27
2022-07-29T20:50:24.042Z,54.93
2022-07-29T20:55:26.923Z,56.13
2022-07-29T21:00:29.707Z,58.29
2022-07-29T21:05:32.689Z,60.63
2022-07-29T21:10:35.108Z,60.89
2022-07-29T21:15:38.064Z,67.09
2022-07-29T21:20:40.665Z,61.48
2022-07-29T21:25:43.293Z,55.31
2022-07-29T21:30:45.816Z,57.76
2022-07-29T21:36:26.615Z,59.77
2022-07-29T21:42:15.188Z,65.23
2022-07-29T21:47:17.623Z,58.94
2022-07-29T21:52:20.341Z,57.07
2022-07-29T21:57:23.519Z,60.66
2022-07-29T22:02:26.019Z,66.06
2022-07-29T22:07:55.442Z,60.00
2022-07-29T22:12:52.480Z,57.30
2022-07-29T22:17:55.574Z,59.95
2022-07-29T22:22:58.183Z,64.04
2022-07-29T22:28:00.598Z,64.46
2022-07-29T22:33:03.076Z,58.02
2022-07-29T22:38:05.443Z,56.99
2022-07-29T22:43:08.090Z,59.43
2022-07-29T22:48:10.588Z,60.95
2022-07-29T22:53:13.863Z,67.48
2022-07-29T22:58:16.226Z,62.27
2022-07-29T23:03:18.769Z,56.64
2022-07-29T23:08:21.257Z,58.64
2022-07-29T23:13:23.710Z,61.50
2022-07-29T23:18:26.143Z,67.76
2022-07-29T23:23:32.345Z,62.03
2022-07-29T23:28:35.084Z,56.73
2022-07-29T23:33:37.481Z,59.29
2022-07-29T23:38:40.892Z,61.56
2022-07-29T23:43:43.494Z,67.75
2022-07-29T23:48:46.268Z,61.80
2022-07-29T23:53:53.049Z,56.76
2022-07-29T23:58:56.515Z,59.11
